Main page
METAR-TAF:

METAR-TAF

Airports :

Curaçao International Airport

Curaçao, Netherlands Antilles

latitude: 12-12N, longitude: 068-58W, elevation: 9 m

Current weather observation

The report was made 30 minutes ago, at 10:00 UTC
Wind 12 kt from the East
Temperature 26°C
Humidity 84%
Pressure 1014 hPa
Visibility 10 km or more
Scattered clouds at a height of 1700 ft

METAR: TNCC 091000Z 10012KT 9999 SCT017 26/23 Q1014 NOSIG

Time: 06:30 (10:30 UTC)

Forecast

The report was made 5 hours and 15 minutes ago, at 05:15 UTC
Forecast valid from 09 at 06 UTC to 10 at 06 UTC
Wind 14 kt from the East
Visibility 10 km or more
Scattered clouds at a height of 2000 ft
Probability 40% :
Temporary
from 09 at 06 UTC to 10 at 06 UTC
Wind 15 kt from the East with gusts up to 27 kt
Visibility: 5000 m
Broken clouds at a height of 1400 ft
rain showers

TAF: TNCC 090515Z 0906/1006 10014KT 9999 SCT020 PROB40 TEMPO 0906/1006 09015G27KT 5000 SHRA BKN014

Weather observations and forecasts of more than 4000 airports (METAR and TAF reports).

The available stations are represented by yellow and red dots on the map.

Hover mouse over dot to see the name of the station.

Then click to see weather observations and forecasts.

To change the map : click on the green buttons with a black cross to zoom in, on the green button with a dash to zoom out, or on the green arrows for adjacent maps.


METAR-TAF: